LEW weather

Auburn Lewiston Municipal Airport
Auburn/Lewiston, Maine, United States

Public forecast

Using degrees Fahrenheit for public forecast. Weather courtesy of forecast.io.

METAR (pilot weather report)

Retrieved 2019/07/21 00:56 UTC (26 minutes ago):

KLEW 210056Z AUTO 17004KT 10SM CLR 27/23 A2971 RMK AO2 SLP069 T02670233

TAF (pilot weather forecast)

Forecast is more than 12 hours old.

Closest forecast is Portland International Jetport, 24.2 nm (44.8 km) S. Retrieved 2019/07/20 00:22 UTC (1 day ago):

TAF KPWM 202320Z 2100/2124 VRB04KT P6SM FEW250 FM211300 28006KT P6SM FEW100 SCT250